Swan River, Canada
Current Conditions -  °F | °C
As of 12:00 PM on Wednesday 26 Nov 2014 (Local Time) from CYQV Reporting Station
Few Clouds Few Clouds  
Wind Chill: -6°   Ceiling: Unl
Heat Index: -6°   Visibility: 9mi
Dew Point: -11°   Wind: 3mph
Humidity: 77%   Direction: 340°NNW
Pressure: 30.43"   Gusts: NA
Location:  52.11°N, 101.25°W
Report Text: CYQV 261800Z AUTO 34003KT 9SM FEW004 M21/M24 A3043 RMK SLP362
Loading
Personal Weather Stations






























Interactive Weather Map New forecast layout! Learn more

10-Day Weather Forecast

Advertisements
Track Severe Weather on mobile